Time;durP1;ratioP1;P1;durP2;ratioP2;P2;SDS_P1;SDS_P2;PMS_P1;PMS_P2;Temp;Humidity;BMP_temperature;BMP_pressure;BME280_temperature;BME280_humidity;BME280_pressure;Samples;Min_cycle;Max_cycle;Signal;HPM_P1;HPM_P2
2023/01/27 00:00:33;;;;;;;13.30;7.72;;;5.10;82.00;;;;;;5017625;28;20060;-78
2023/01/27 00:02:59;;;;;;;16.70;9.13;;;5.10;81.90;;;;;;5040917;28;20028;-79
2023/01/27 00:05:25;;;;;;;22.17;14.13;;;5.00;81.80;;;;;;5028067;28;20067;-77
2023/01/27 00:07:51;;;;;;;16.63;10.20;;;5.00;81.80;;;;;;5038472;28;20075;-76
2023/01/27 00:10:18;;;;;;;13.63;9.05;;;5.00;81.60;;;;;;5045010;28;20499;-80
2023/01/27 00:15:30;;;;;;;;;;;5.00;81.30;;;;;;5040262;28;20098;-78
2023/01/27 00:17:55;;;;;;;13.68;9.77;;;5.00;81.10;;;;;;5005777;28;19917;-78
2023/01/27 00:24:34;;;;;;;17.02;10.50;;;5.00;81.10;;;;;;5048273;28;20030;-78
2023/01/27 00:26:05;;;;;;;17.60;13.05;;;5.00;81.10;;;;;;5043773;28;20623;-77
2023/01/27 00:28:31;;;;;;;16.58;12.48;;;4.90;81.10;;;;;;5051200;28;20048;-78
2023/01/27 00:30:58;;;;;;;19.33;13.50;;;4.90;81.60;;;;;;5028957;28;20041;-78
2023/01/27 00:33:25;;;;;;;18.33;10.57;;;4.90;81.30;;;;;;5047827;28;20523;-78
2023/01/27 00:36:04;;;;;;;23.23;16.08;;;4.90;81.30;;;;;;5036803;28;20044;-78
2023/01/27 00:38:31;;;;;;;16.15;11.60;;;4.90;81.40;;;;;;5046542;28;20033;-78
2023/01/27 00:43:41;;;;;;;30.58;21.45;;;4.90;81.40;;;;;;5047578;28;20036;-78
2023/01/27 00:46:07;;;;;;;16.85;11.20;;;4.90;81.40;;;;;;5034408;28;20484;-78
2023/01/27 00:48:33;;;;;;;15.55;10.65;;;4.90;81.40;;;;;;5026427;28;20072;-78
2023/01/27 00:50:59;;;;;;;15.88;11.10;;;4.90;81.40;;;;;;5036759;28;20041;-78
2023/01/27 00:53:25;;;;;;;15.75;10.73;;;4.90;81.20;;;;;;5039636;28;21554;-78
2023/01/27 00:55:51;;;;;;;19.77;10.60;;;5.00;81.20;;;;;;5040002;28;20126;-78
2023/01/27 00:58:16;;;;;;;20.08;11.60;;;4.90;81.30;;;;;;5049740;28;20108;-78
2023/01/27 01:00:43;;;;;;;17.15;10.30;;;4.90;81.20;;;;;;5048212;28;20103;-78
2023/01/27 01:03:08;;;;;;;17.45;9.73;;;4.90;81.30;;;;;;5030560;28;20079;-78
2023/01/27 01:05:34;;;;;;;16.38;9.65;;;4.90;81.30;;;;;;5021856;28;20128;-78
2023/01/27 01:08:00;;;;;;;12.80;9.20;;;4.90;81.30;;;;;;5017982;28;20037;-78
2023/01/27 01:10:25;;;;;;;11.68;8.77;;;5.00;81.30;;;;;;5027040;28;20037;-78
2023/01/27 01:12:51;;;;;;;9.73;7.88;;;4.90;81.30;;;;;;5017733;28;20042;-78
2023/01/27 01:15:17;;;;;;;12.52;8.30;;;4.90;81.20;;;;;;5030835;28;20045;-78
2023/01/27 01:17:42;;;;;;;14.10;8.45;;;4.90;81.00;;;;;;5047470;28;20536;-78
2023/01/27 01:20:08;;;;;;;8.55;6.95;;;4.90;81.00;;;;;;5029440;28;20040;-78
2023/01/27 01:22:34;;;;;;;9.65;6.70;;;4.90;80.80;;;;;;5035957;28;20040;-78
2023/01/27 01:25:00;;;;;;;11.73;7.88;;;4.90;80.80;;;;;;5020536;28;20037;-78
2023/01/27 01:27:26;;;;;;;9.80;7.20;;;4.90;80.90;;;;;;5042839;28;20037;-78
2023/01/27 01:29:51;;;;;;;9.38;7.22;;;4.90;81.00;;;;;;5045521;28;20078;-78
2023/01/27 01:32:17;;;;;;;8.40;6.78;;;4.90;81.00;;;;;;5027510;28;20053;-78
2023/01/27 01:34:43;;;;;;;10.95;7.28;;;4.90;80.90;;;;;;5022996;28;20413;-78
2023/01/27 01:37:08;;;;;;;10.43;7.75;;;4.90;80.70;;;;;;5044850;28;20040;-78
2023/01/27 01:39:34;;;;;;;10.68;7.93;;;4.90;80.70;;;;;;5020448;28;20029;-78
2023/01/27 01:42:00;;;;;;;11.63;8.40;;;4.90;80.80;;;;;;5042219;28;20029;-78
2023/01/27 01:44:31;;;;;;;10.20;7.75;;;4.90;80.90;;;;;;5037300;28;20099;-78
2023/01/27 01:46:58;;;;;;;12.27;8.07;;;4.90;81.00;;;;;;5040505;28;20488;-78
2023/01/27 01:49:35;;;;;;;11.35;7.85;;;4.90;81.00;;;;;;5038284;28;20076;-78
2023/01/27 01:52:28;;;;;;;9.52;7.72;;;4.90;81.00;;;;;;5046707;28;20542;-78
2023/01/27 01:54:55;;;;;;;9.60;7.25;;;4.90;80.80;;;;;;5049308;28;20515;-78
2023/01/27 01:57:27;;;;;;;7.78;6.07;;;5.00;81.00;;;;;;5027208;28;20112;-78
2023/01/27 02:00:05;;;;;;;9.20;6.90;;;4.90;80.80;;;;;;5040802;28;20036;-78
2023/01/27 02:02:32;;;;;;;12.38;9.18;;;4.90;80.80;;;;;;5045669;28;20030;-78
2023/01/27 02:05:15;;;;;;;9.55;8.20;;;4.90;80.80;;;;;;5021359;28;20369;-78
2023/01/27 02:07:56;;;;;;;10.65;9.02;;;4.90;80.80;;;;;;5042132;28;20488;-78
2023/01/27 02:10:22;;;;;;;9.30;7.65;;;4.90;80.80;;;;;;5043464;28;20401;-78
2023/01/27 02:12:48;;;;;;;9.45;6.93;;;4.90;80.70;;;;;;5030557;28;20041;-78
2023/01/27 02:15:14;;;;;;;9.32;7.28;;;4.90;80.60;;;;;;5023034;28;20048;-78
2023/01/27 02:17:40;;;;;;;8.38;6.25;;;4.90;80.60;;;;;;5035039;28;20118;-78
2023/01/27 02:20:27;;;;;;;8.52;5.88;;;4.90;80.60;;;;;;5034839;28;20080;-78
2023/01/27 02:23:32;;;;;;;6.13;4.72;;;4.90;80.60;;;;;;5043657;28;20041;-78
2023/01/27 02:26:22;;;;;;;9.35;5.38;;;4.90;80.50;;;;;;5039813;28;20495;-78
2023/01/27 02:29:04;;;;;;;7.82;5.35;;;4.90;80.60;;;;;;5040040;28;20517;-77
2023/01/27 02:31:29;;;;;;;7.82;4.50;;;4.90;80.60;;;;;;5039876;28;20045;-78
2023/01/27 02:34:03;;;;;;;7.00;4.30;;;4.90;80.50;;;;;;5040951;28;20034;-78
2023/01/27 02:36:33;;;;;;;7.95;4.43;;;4.90;80.50;;;;;;5016227;28;20037;-78
2023/01/27 02:39:00;;;;;;;7.93;4.22;;;4.90;80.40;;;;;;5039483;28;20052;-78
2023/01/27 02:42:05;;;;;;;4.60;3.40;;;4.90;80.80;;;;;;5032061;28;20388;-78
2023/01/27 02:44:31;;;;;;;5.63;3.78;;;5.00;80.00;;;;;;5018148;28;20455;-78
2023/01/27 02:46:57;;;;;;;5.90;3.45;;;5.20;80.30;;;;;;5015196;28;20037;-78
2023/01/27 02:49:22;;;;;;;4.57;3.15;;;4.90;80.00;;;;;;5027280;28;20103;-78
2023/01/27 02:51:48;;;;;;;4.95;2.80;;;4.90;79.70;;;;;;5046972;28;20033;-78
2023/01/27 02:54:14;;;;;;;6.72;2.88;;;4.90;79.50;;;;;;5037211;28;20476;-78
2023/01/27 02:56:39;;;;;;;6.07;2.90;;;4.90;79.40;;;;;;5039684;28;20032;-78
2023/01/27 02:59:05;;;;;;;5.70;3.33;;;4.90;79.20;;;;;;5023737;28;20116;-78
2023/01/27 03:01:31;;;;;;;5.22;2.38;;;4.90;79.00;;;;;;5023478;28;20032;-78
2023/01/27 03:03:57;;;;;;;5.43;2.33;;;4.90;78.80;;;;;;5048559;28;20399;-77
2023/01/27 03:06:23;;;;;;;6.43;2.80;;;5.00;78.60;;;;;;5037200;28;20052;-78
2023/01/27 03:08:49;;;;;;;5.45;2.50;;;5.00;78.60;;;;;;5048246;28;20049;-78
2023/01/27 03:12:18;;;;;;;3.72;2.22;;;4.90;78.30;;;;;;5041968;28;20044;-78
2023/01/27 03:14:01;;;;;;;2.97;2.10;;;5.00;78.20;;;;;;5044076;28;20045;-78
2023/01/27 03:19:10;;;;;;;3.40;1.90;;;5.00;77.70;;;;;;5030559;28;20121;-79
2023/01/27 03:21:36;;;;;;;3.25;2.03;;;5.00;77.30;;;;;;5038715;28;20196;-78
2023/01/27 03:24:02;;;;;;;3.45;1.90;;;5.00;77.20;;;;;;5033534;28;20080;-78
2023/01/27 03:26:27;;;;;;;4.18;2.00;;;5.00;77.00;;;;;;5037414;28;20049;-79
2023/01/27 03:31:37;;;;;;;3.70;2.40;;;5.00;76.60;;;;;;5021839;28;20135;-78
2023/01/27 03:34:03;;;;;;;4.43;2.28;;;5.00;76.40;;;;;;5009378;28;20115;-78
2023/01/27 03:47:25;;;;;;;3.28;1.60;;;5.10;75.20;;;;;;5019454;28;20055;-78
2023/01/27 03:49:51;;;;;;;3.13;1.65;;;5.10;75.30;;;;;;5028102;28;20037;-78
2023/01/27 03:52:17;;;;;;;4.43;1.67;;;5.00;75.20;;;;;;5029950;28;20044;-78
2023/01/27 03:54:42;;;;;;;3.25;1.58;;;5.10;75.00;;;;;;5020786;28;20042;-78
2023/01/27 03:57:08;;;;;;;3.13;1.48;;;5.00;74.30;;;;;;5034577;28;20086;-78
2023/01/27 03:59:34;;;;;;;3.42;1.60;;;5.10;74.20;;;;;;5048517;28;20040;-78
2023/01/27 04:07:29;;;;;;;2.58;1.50;;;5.00;74.20;;;;;;5046148;28;20079;-78
2023/01/27 04:09:55;;;;;;;6.32;2.05;;;5.00;74.10;;;;;;5041723;28;20076;-78
2023/01/27 04:12:21;;;;;;;2.83;1.10;;;5.00;74.00;;;;;;5045065;28;20042;-78
2023/01/27 04:14:47;;;;;;;3.53;1.30;;;5.00;74.00;;;;;;5048451;28;20511;-77
2023/01/27 04:17:18;;;;;;;4.88;1.40;;;5.00;73.80;;;;;;5045008;28;20049;-78
2023/01/27 04:19:44;;;;;;;2.42;1.40;;;5.00;73.20;;;;;;5035010;28;20033;-77
2023/01/27 04:22:14;;;;;;;3.90;1.45;;;5.10;73.20;;;;;;5026359;28;20504;-78
2023/01/27 04:24:40;;;;;;;3.05;1.50;;;5.00;72.90;;;;;;5037208;28;20041;-78
2023/01/27 04:27:09;;;;;;;2.95;1.40;;;5.00;73.20;;;;;;5041125;28;20037;-78
2023/01/27 04:29:39;;;;;;;3.03;1.60;;;5.00;73.40;;;;;;5044004;28;20056;-78
2023/01/27 04:32:07;;;;;;;2.17;1.48;;;5.00;73.70;;;;;;5041988;28;20045;-78
2023/01/27 04:34:33;;;;;;;2.53;1.33;;;5.00;74.00;;;;;;5041595;28;20496;-78
2023/01/27 04:36:59;;;;;;;2.83;1.40;;;4.90;74.10;;;;;;5047650;28;20051;-78
2023/01/27 04:39:25;;;;;;;2.75;1.48;;;4.90;74.30;;;;;;5047175;28;20040;-78
2023/01/27 04:41:51;;;;;;;2.95;1.50;;;4.90;74.60;;;;;;5037607;28;20041;-78
2023/01/27 04:44:20;;;;;;;4.78;1.50;;;5.00;74.80;;;;;;5046801;28;20448;-78
2023/01/27 04:46:46;;;;;;;8.18;2.28;;;5.00;74.90;;;;;;5042978;28;20041;-78
2023/01/27 04:49:12;;;;;;;2.88;1.48;;;4.90;75.10;;;;;;5046946;28;20041;-78
2023/01/27 04:51:38;;;;;;;4.75;1.80;;;5.00;75.20;;;;;;5039564;28;20092;-79
2023/01/27 04:54:04;;;;;;;2.70;1.45;;;4.90;75.00;;;;;;5038561;28;20043;-78
2023/01/27 04:56:33;;;;;;;3.45;2.35;;;4.90;74.70;;;;;;5027031;28;20378;-78
2023/01/27 04:59:01;;;;;;;2.80;1.65;;;4.90;74.10;;;;;;5027883;28;20041;-78
2023/01/27 05:01:27;;;;;;;4.55;1.90;;;4.90;73.80;;;;;;5042077;28;20095;-78
2023/01/27 05:03:53;;;;;;;3.90;1.73;;;4.90;73.60;;;;;;5013561;28;20400;-78
2023/01/27 05:06:19;;;;;;;4.30;1.77;;;4.90;73.60;;;;;;5035045;28;20040;-78
2023/01/27 05:08:45;;;;;;;3.45;1.67;;;4.80;73.50;;;;;;5037852;28;20034;-78
2023/01/27 05:11:11;;;;;;;2.92;1.67;;;4.90;73.50;;;;;;5036743;28;20047;-78
2023/01/27 05:13:37;;;;;;;3.45;1.58;;;4.80;73.60;;;;;;5037404;28;20044;-78
2023/01/27 05:16:11;;;;;;;3.88;1.92;;;4.80;73.80;;;;;;5046938;28;20481;-78
2023/01/27 05:18:38;;;;;;;4.35;1.85;;;4.80;74.00;;;;;;5046807;28;20037;-78
2023/01/27 05:21:05;;;;;;;3.13;1.65;;;4.80;74.20;;;;;;5045479;28;20037;-78
2023/01/27 05:23:34;;;;;;;3.47;1.50;;;4.80;74.30;;;;;;5040897;28;20095;-78
2023/01/27 05:26:06;;;;;;;3.33;1.63;;;4.90;74.80;;;;;;5038688;28;20041;-78
2023/01/27 05:28:33;;;;;;;4.28;1.67;;;4.80;74.40;;;;;;5043261;28;20112;-78
2023/01/27 05:31:04;;;;;;;8.90;1.40;;;4.80;74.40;;;;;;5044484;28;20029;-78
2023/01/27 05:33:30;;;;;;;3.75;1.75;;;4.80;74.20;;;;;;5044766;28;20056;-78
2023/01/27 05:36:01;;;;;;;4.00;1.60;;;4.80;74.20;;;;;;5036541;28;20037;-78
2023/01/27 05:38:27;;;;;;;6.25;1.70;;;4.80;74.20;;;;;;5040480;28;20037;-78
2023/01/27 05:40:59;;;;;;;2.55;1.40;;;4.80;74.20;;;;;;5036476;28;20076;-78
2023/01/27 05:43:25;;;;;;;5.07;1.58;;;4.70;74.10;;;;;;5018043;28;20068;-78
2023/01/27 05:45:51;;;;;;;5.63;1.60;;;4.80;74.30;;;;;;5038305;28;20033;-78
2023/01/27 05:48:17;;;;;;;5.45;1.55;;;4.80;74.40;;;;;;5024552;28;20037;-79
2023/01/27 05:50:42;;;;;;;4.13;1.33;;;4.80;74.40;;;;;;5045874;28;20048;-78
2023/01/27 05:53:08;;;;;;;2.47;1.30;;;4.70;74.20;;;;;;5041691;28;20073;-78
2023/01/27 05:55:34;;;;;;;4.35;1.55;;;4.70;74.10;;;;;;5038573;28;20033;-79
2023/01/27 05:57:59;;;;;;;4.35;1.52;;;4.70;74.10;;;;;;5023030;28;20045;-78
2023/01/27 06:00:25;;;;;;;3.25;1.20;;;4.80;74.20;;;;;;5024560;28;20041;-78
2023/01/27 06:02:50;;;;;;;5.03;1.33;;;4.70;74.30;;;;;;5038982;28;20073;-78
2023/01/27 06:05:16;;;;;;;5.50;1.80;;;4.70;74.40;;;;;;5023935;28;20051;-78
2023/01/27 06:07:42;;;;;;;3.78;1.55;;;4.70;74.30;;;;;;5041699;28;20049;-78
2023/01/27 06:10:08;;;;;;;6.50;1.67;;;4.70;74.40;;;;;;5040234;28;20041;-78
2023/01/27 06:12:34;;;;;;;3.85;1.67;;;4.70;74.50;;;;;;5017781;28;20385;-78
2023/01/27 06:15:00;;;;;;;4.97;2.30;;;4.70;74.30;;;;;;5039044;28;20049;-78
2023/01/27 06:17:25;;;;;;;5.22;1.98;;;4.70;74.20;;;;;;5043466;28;20044;-77
2023/01/27 06:19:51;;;;;;;5.20;2.20;;;4.70;74.30;;;;;;5041016;28;20029;-78
2023/01/27 06:22:17;;;;;;;4.15;1.92;;;4.70;74.20;;;;;;5034790;28;20049;-78
2023/01/27 06:24:42;;;;;;;4.65;2.42;;;4.60;73.80;;;;;;5041724;28;20048;-78
2023/01/27 06:27:09;;;;;;;5.75;2.17;;;4.70;73.90;;;;;;5038048;28;20044;-78
2023/01/27 06:29:35;;;;;;;4.65;2.50;;;4.70;73.80;;;;;;5030595;28;20045;-78
2023/01/27 06:32:01;;;;;;;5.25;2.42;;;4.60;73.90;;;;;;5040407;28;20047;-78
2023/01/27 06:34:26;;;;;;;4.30;2.08;;;4.70;74.10;;;;;;5022902;28;20080;-78
2023/01/27 06:36:53;;;;;;;4.35;2.30;;;4.70;74.20;;;;;;5033984;28;20040;-78
2023/01/27 06:39:18;;;;;;;6.07;2.42;;;4.70;74.30;;;;;;5042701;28;20033;-78
2023/01/27 06:41:44;;;;;;;3.78;1.80;;;4.70;74.30;;;;;;5028179;28;20039;-78
2023/01/27 06:44:10;;;;;;;7.20;2.20;;;4.70;74.30;;;;;;5045390;28;20176;-78
2023/01/27 06:46:35;;;;;;;3.97;2.00;;;4.70;74.30;;;;;;5038374;28;20045;-78
2023/01/27 06:49:01;;;;;;;4.30;2.25;;;4.70;74.50;;;;;;5043434;28;20029;-78
2023/01/27 06:51:27;;;;;;;4.30;2.28;;;4.70;74.40;;;;;;5022788;28;20083;-78
2023/01/27 06:53:53;;;;;;;4.05;1.95;;;4.60;74.30;;;;;;5038783;28;20068;-78
2023/01/27 06:56:18;;;;;;;4.45;2.30;;;4.70;74.30;;;;;;5042474;28;20123;-78
2023/01/27 06:58:44;;;;;;;3.35;1.92;;;4.70;74.40;;;;;;5042488;28;20395;-78
2023/01/27 07:01:10;;;;;;;5.07;2.10;;;4.70;74.50;;;;;;5043564;28;20060;-78
2023/01/27 07:03:36;;;;;;;4.43;2.75;;;4.60;74.50;;;;;;5022771;28;20025;-78
2023/01/27 07:06:02;;;;;;;5.82;1.63;;;4.60;74.70;;;;;;5043856;28;20083;-78
2023/01/27 07:08:27;;;;;;;3.13;1.60;;;4.60;74.60;;;;;;5034197;28;20045;-77
2023/01/27 07:10:53;;;;;;;3.38;1.33;;;4.70;74.70;;;;;;5024881;28;20408;-78
2023/01/27 07:13:19;;;;;;;3.08;1.70;;;4.60;74.70;;;;;;5023412;28;20056;-77
2023/01/27 07:15:45;;;;;;;3.15;1.38;;;4.60;74.70;;;;;;5039865;28;20060;-78
2023/01/27 07:18:12;;;;;;;5.18;1.65;;;4.60;74.80;;;;;;5047998;28;20068;-77
2023/01/27 07:20:39;;;;;;;6.38;2.72;;;4.60;74.90;;;;;;5039649;28;20037;-77
2023/01/27 07:23:05;;;;;;;6.43;1.45;;;4.60;75.10;;;;;;5044157;28;20033;-77
2023/01/27 07:25:32;;;;;;;4.80;1.92;;;4.60;75.00;;;;;;5036962;28;20049;-77
2023/01/27 07:28:00;;;;;;;4.90;1.52;;;4.60;75.00;;;;;;5020877;28;20033;-78
2023/01/27 07:30:26;;;;;;;5.25;1.60;;;4.60;74.90;;;;;;5038817;28;20048;-78
2023/01/27 07:32:54;;;;;;;2.42;1.20;;;4.60;75.00;;;;;;5036654;28;20510;-77
2023/01/27 07:35:21;;;;;;;2.53;1.40;;;4.60;75.00;;;;;;5039965;28;20073;-77
2023/01/27 07:37:47;;;;;;;2.50;1.27;;;4.60;75.10;;;;;;5044704;28;20045;-77
2023/01/27 07:40:12;;;;;;;2.33;1.40;;;4.60;75.10;;;;;;5022601;28;20044;-77
2023/01/27 07:42:39;;;;;;;3.38;1.40;;;4.60;75.20;;;;;;5042413;28;20073;-77
2023/01/27 07:45:05;;;;;;;3.67;1.50;;;4.60;75.20;;;;;;5020707;28;20048;-74
2023/01/27 07:47:31;;;;;;;3.35;1.60;;;4.60;75.30;;;;;;5048090;28;20125;-74
2023/01/27 07:49:57;;;;;;;4.97;1.30;;;4.60;75.30;;;;;;5032976;28;20048;-74
2023/01/27 07:52:22;;;;;;;3.80;2.10;;;4.60;75.40;;;;;;5018818;28;20046;-74
2023/01/27 07:54:48;;;;;;;4.78;1.33;;;4.60;75.50;;;;;;5035979;28;20623;-74
2023/01/27 07:57:14;;;;;;;2.33;1.40;;;4.50;75.60;;;;;;5049267;28;20041;-73
2023/01/27 07:59:39;;;;;;;3.72;1.13;;;4.50;75.70;;;;;;5030182;28;20534;-74
2023/01/27 08:02:05;;;;;;;6.70;1.60;;;4.60;75.90;;;;;;5048154;28;20076;-73
2023/01/27 08:04:31;;;;;;;2.45;1.35;;;4.60;76.00;;;;;;5025403;28;20041;-74
2023/01/27 08:06:57;;;;;;;2.50;1.20;;;4.60;76.10;;;;;;5033167;28;20045;-73
2023/01/27 08:09:22;;;;;;;4.53;1.27;;;4.70;76.20;;;;;;5048540;28;20075;-74
2023/01/27 08:11:48;;;;;;;4.70;1.60;;;4.60;76.30;;;;;;5048626;28;20036;-74
2023/01/27 08:14:14;;;;;;;3.95;1.67;;;4.60;76.30;;;;;;5032134;28;20503;-73
2023/01/27 08:16:39;;;;;;;3.30;1.20;;;4.50;76.20;;;;;;5032167;28;20042;-74
2023/01/27 08:19:05;;;;;;;2.85;1.33;;;4.50;76.30;;;;;;5042560;28;20041;-74
2023/01/27 08:21:31;;;;;;;4.88;1.20;;;4.60;76.50;;;;;;5001780;28;20393;-73
2023/01/27 08:25:39;;;;;;;4.20;1.20;;;4.60;76.30;;;;;;5150646;27;20170;-74
2023/01/27 08:28:05;;;;;;;2.25;0.98;;;4.60;76.40;;;;;;5149654;27;20034;-74
2023/01/27 08:30:31;;;;;;;2.20;1.20;;;4.60;76.50;;;;;;5112742;27;20043;-74
2023/01/27 08:32:56;;;;;;;5.03;1.98;;;4.60;76.60;;;;;;5125876;27;20410;-75
2023/01/27 08:35:22;;;;;;;2.58;1.13;;;4.60;76.70;;;;;;5109278;27;20050;-75
2023/01/27 08:37:48;;;;;;;3.75;1.27;;;4.60;76.70;;;;;;5143609;27;20045;-74
2023/01/27 08:40:14;;;;;;;2.50;1.15;;;4.60;77.20;;;;;;5144805;27;20381;-74
2023/01/27 08:42:39;;;;;;;2.75;1.38;;;4.60;77.10;;;;;;5144126;27;20039;-74
2023/01/27 08:45:06;;;;;;;4.28;1.50;;;4.70;77.20;;;;;;5126651;27;20041;-74
2023/01/27 08:47:31;;;;;;;3.40;1.40;;;4.70;77.20;;;;;;5143222;27;20069;-73
2023/01/27 08:49:57;;;;;;;4.50;1.73;;;4.70;77.20;;;;;;5126271;27;20059;-74
2023/01/27 08:52:23;;;;;;;3.05;1.40;;;4.70;77.30;;;;;;5143444;27;20046;-73
2023/01/27 08:54:48;;;;;;;3.83;1.63;;;4.70;77.50;;;;;;5143449;27;20053;-73
2023/01/27 08:57:14;;;;;;;4.45;1.77;;;4.70;77.50;;;;;;5142994;27;20047;-73
2023/01/27 08:59:39;;;;;;;3.22;1.50;;;4.70;77.70;;;;;;5126222;27;20042;-74
2023/01/27 09:02:05;;;;;;;4.03;1.73;;;4.70;77.80;;;;;;5124164;27;20043;-73
2023/01/27 09:04:31;;;;;;;6.00;1.95;;;4.80;77.80;;;;;;5141310;27;20545;-74
2023/01/27 09:06:57;;;;;;;5.00;1.60;;;4.70;77.70;;;;;;5127214;27;20058;-73
2023/01/27 09:09:22;;;;;;;4.72;1.70;;;4.80;77.80;;;;;;5124024;27;20035;-73
2023/01/27 09:11:48;;;;;;;5.00;1.80;;;4.80;77.80;;;;;;5123493;27;20039;-73
2023/01/27 09:14:14;;;;;;;2.92;1.38;;;4.80;77.80;;;;;;5141214;27;20074;-74
2023/01/27 09:16:39;;;;;;;5.65;1.83;;;4.80;78.00;;;;;;5140866;27;20031;-75
2023/01/27 09:19:05;;;;;;;4.90;1.67;;;4.80;78.10;;;;;;5139358;27;20039;-73
2023/01/27 09:21:31;;;;;;;5.07;1.88;;;4.80;78.10;;;;;;5091080;27;20661;-74
2023/01/27 09:23:56;;;;;;;4.78;1.75;;;4.90;78.20;;;;;;5122578;27;20082;-73
2023/01/27 09:26:22;;;;;;;5.70;1.98;;;5.00;78.20;;;;;;5123506;27;20722;-73
2023/01/27 09:28:48;;;;;;;6.10;1.92;;;4.90;78.20;;;;;;5105473;27;20039;-73
2023/01/27 09:31:13;;;;;;;4.80;1.77;;;4.90;78.30;;;;;;5141390;27;21827;-73
2023/01/27 09:33:39;;;;;;;6.05;2.00;;;4.90;78.20;;;;;;5104679;27;20057;-74
2023/01/27 09:36:10;;;;;;;6.32;1.95;;;4.90;78.30;;;;;;5091985;27;20084;-73
2023/01/27 09:38:45;;;;;;;3.10;1.85;;;4.90;78.50;;;;;;5126452;27;20039;-73
2023/01/27 09:41:11;;;;;;;3.25;2.10;;;5.00;78.50;;;;;;5117242;27;20035;-74
2023/01/27 09:43:53;;;;;;;3.38;1.98;;;4.90;78.80;;;;;;5103869;28;20039;-73
2023/01/27 09:46:44;;;;;;;4.45;1.85;;;5.00;78.60;;;;;;5127621;27;20039;-73
2023/01/27 09:50:06;;;;;;;4.32;2.15;;;5.00;78.60;;;;;;5110825;28;20081;-73
2023/01/27 09:52:47;;;;;;;6.93;2.00;;;5.00;78.70;;;;;;5113806;27;20455;-74
2023/01/27 09:55:18;;;;;;;4.88;2.78;;;5.00;79.00;;;;;;5122212;27;21524;-74
2023/01/27 09:58:03;;;;;;;5.22;2.20;;;5.00;79.00;;;;;;5114596;27;20549;-72
2023/01/27 10:00:42;;;;;;;5.40;2.28;;;5.00;78.90;;;;;;5119269;27;20046;-73
2023/01/27 10:03:42;;;;;;;4.53;2.42;;;5.00;79.00;;;;;;5114239;27;20072;-73
2023/01/27 10:06:10;;;;;;;6.90;2.30;;;5.00;79.10;;;;;;5108269;27;20051;-73
2023/01/27 10:08:42;;;;;;;6.63;2.95;;;5.00;79.10;;;;;;5105869;27;20035;-74
2023/01/27 10:11:39;;;;;;;4.53;2.58;;;5.00;79.00;;;;;;5099892;28;20063;-74
2023/01/27 10:14:24;;;;;;;4.95;2.25;;;5.10;79.00;;;;;;5108205;27;20048;-74
2023/01/27 10:17:01;;;;;;;4.90;2.90;;;5.10;78.90;;;;;;5124643;27;20045;-74
2023/01/27 10:19:30;;;;;;;6.43;2.80;;;5.10;78.90;;;;;;5132859;27;20038;-79
2023/01/27 10:22:04;;;;;;;4.75;2.30;;;5.10;78.90;;;;;;5117720;27;20084;-78
2023/01/27 10:24:59;;;;;;;4.68;2.40;;;5.10;78.80;;;;;;5125682;27;20058;-78
2023/01/27 10:27:30;;;;;;;4.88;2.60;;;5.20;78.70;;;;;;5117697;27;20119;-79
2023/01/27 10:30:13;;;;;;;4.60;2.40;;;5.20;78.80;;;;;;5105502;27;20047;-78
2023/01/27 10:32:50;;;;;;;4.35;2.50;;;5.20;78.60;;;;;;5106132;28;20040;-78
2023/01/27 10:35:28;;;;;;;8.18;3.60;;;5.20;78.30;;;;;;5119608;27;20043;-79
2023/01/27 10:38:07;;;;;;;6.82;2.97;;;5.20;78.20;;;;;;5108675;27;20525;-78
2023/01/27 10:40:45;;;;;;;4.97;2.58;;;5.20;78.20;;;;;;5124942;27;20047;-78
2023/01/27 10:43:41;;;;;;;4.53;2.40;;;5.20;78.20;;;;;;5123796;27;20118;-78
2023/01/27 10:46:31;;;;;;;2.70;1.60;;;5.30;78.30;;;;;;5125590;27;20054;-77
2023/01/27 10:49:06;;;;;;;3.05;1.70;;;5.30;78.20;;;;;;5126148;27;20491;-77
2023/01/27 10:51:42;;;;;;;;;;;5.30;78.20;;;;;;5121632;27;20055;-77
2023/01/27 10:54:17;;;;;;;6.50;1.73;;;5.30;78.00;;;;;;5121573;27;19936;-78
2023/01/27 10:57:01;;;;;;;3.30;1.70;;;5.30;78.00;;;;;;5110162;27;20106;-78
2023/01/27 10:59:54;;;;;;;5.88;2.45;;;5.30;77.60;;;;;;5115676;27;20070;-77
2023/01/27 11:02:33;;;;;;;3.42;1.92;;;5.30;77.70;;;;;;5108570;27;20477;-77
2023/01/27 11:05:04;;;;;;;3.00;1.40;;;5.40;77.60;;;;;;5124988;27;20406;-78
2023/01/27 11:07:32;;;;;;;2.45;1.20;;;5.40;77.50;;;;;;5119952;27;20470;-77
2023/01/27 11:10:15;;;;;;;2.45;1.20;;;5.40;77.20;;;;;;5116997;27;20036;-77
2023/01/27 11:12:46;;;;;;;1.50;0.90;;;5.40;76.10;;;;;;5121450;27;20035;-77
2023/01/27 11:15:22;;;;;;;2.58;0.52;;;5.30;76.00;;;;;;5118906;27;20032;-78
2023/01/27 11:17:53;;;;;;;1.45;0.70;;;5.30;74.70;;;;;;5127488;27;20039;-78
2023/01/27 11:20:28;;;;;;;3.28;0.90;;;5.30;74.30;;;;;;5130914;27;20035;-78
2023/01/27 11:23:09;;;;;;;1.77;1.13;;;5.50;74.50;;;;;;5117588;27;20071;-79
2023/01/27 11:26:10;;;;;;;2.47;1.02;;;5.30;74.50;;;;;;5126861;27;20059;-76
2023/01/27 11:29:00;;;;;;;2.97;1.23;;;5.30;74.70;;;;;;5113521;27;20075;-78
2023/01/27 11:31:53;;;;;;;3.25;1.20;;;5.30;74.90;;;;;;5124897;27;20024;-78
2023/01/27 11:34:27;;;;;;;2.05;1.08;;;5.30;74.80;;;;;;5096273;28;20093;-78
2023/01/27 11:36:53;;;;;;;1.30;1.08;;;5.20;74.60;;;;;;5116316;27;20075;-78
2023/01/27 11:39:19;;;;;;;2.33;1.17;;;5.20;74.70;;;;;;5131444;27;20066;-78
2023/01/27 11:41:51;;;;;;;1.42;0.90;;;5.20;74.50;;;;;;5122918;27;20035;-79
2023/01/27 11:44:22;;;;;;;4.35;1.17;;;5.20;74.20;;;;;;5124073;27;21331;-78
2023/01/27 11:46:49;;;;;;;3.22;1.25;;;5.20;74.40;;;;;;5124289;27;20096;-78
2023/01/27 11:49:24;;;;;;;2.03;1.20;;;5.20;74.20;;;;;;5124119;27;20041;-78
2023/01/27 11:51:50;;;;;;;1.77;1.10;;;5.20;73.90;;;;;;5124411;27;20070;-79
2023/01/27 11:54:26;;;;;;;1.90;0.98;;;5.10;73.90;;;;;;5105167;27;20067;-78
2023/01/27 11:56:52;;;;;;;1.95;1.00;;;5.10;74.20;;;;;;5124494;27;20506;-78
2023/01/27 11:59:38;;;;;;;1.13;1.00;;;5.10;74.40;;;;;;5106855;27;20043;-77
2023/01/27 12:02:07;;;;;;;2.72;1.10;;;5.10;74.60;;;;;;5108867;27;20047;-78
2023/01/27 12:04:56;;;;;;;2.47;1.45;;;5.10;74.90;;;;;;5106076;27;20067;-77
2023/01/27 12:07:39;;;;;;;1.55;1.10;;;5.10;74.90;;;;;;5105919;27;20075;-73
2023/01/27 12:10:24;;;;;;;3.40;1.27;;;5.10;74.90;;;;;;5120043;27;20607;-74
2023/01/27 12:12:49;;;;;;;3.70;1.35;;;5.30;74.80;;;;;;5102935;27;20470;-75
2023/01/27 12:15:17;;;;;;;3.35;1.30;;;5.10;74.70;;;;;;5121993;27;20058;-75
2023/01/27 12:17:47;;;;;;;2.33;1.10;;;5.10;74.80;;;;;;5116445;27;20119;-75
2023/01/27 12:20:36;;;;;;;1.30;1.10;;;5.10;75.20;;;;;;5102757;27;20091;-75
2023/01/27 12:23:17;;;;;;;2.17;1.42;;;5.10;74.60;;;;;;5104396;28;20100;-75
2023/01/27 12:25:46;;;;;;;3.50;1.60;;;5.10;74.60;;;;;;5102336;28;20626;-74
2023/01/27 12:28:40;;;;;;;2.15;1.50;;;5.10;74.70;;;;;;5117395;27;20038;-75
2023/01/27 12:31:18;;;;;;;2.50;1.33;;;5.10;74.80;;;;;;5099630;28;20038;-74
2023/01/27 12:33:51;;;;;;;3.45;2.00;;;5.10;74.70;;;;;;5116621;27;20047;-75
2023/01/27 12:36:23;;;;;;;3.55;1.90;;;5.10;74.70;;;;;;5100784;27;20043;-74
2023/01/27 12:38:57;;;;;;;2.90;1.77;;;5.20;74.50;;;;;;5116946;27;20045;-75
2023/01/27 12:41:41;;;;;;;3.87;2.07;;;5.30;74.70;;;;;;5115625;27;20040;-74
2023/01/27 12:44:13;;;;;;;2.75;1.67;;;5.00;74.60;;;;;;5099298;27;20381;-74
2023/01/27 12:46:41;;;;;;;3.28;1.83;;;5.00;74.80;;;;;;5116746;28;20409;-75
2023/01/27 12:49:13;;;;;;;2.28;1.70;;;5.00;74.50;;;;;;5096820;27;20035;-75
2023/01/27 12:51:49;;;;;;;2.13;1.63;;;5.00;74.40;;;;;;5115649;27;20432;-75
2023/01/27 12:54:26;;;;;;;3.47;1.90;;;5.10;74.40;;;;;;5115280;28;20524;-75
2023/01/27 12:56:55;;;;;;;2.97;2.20;;;5.00;74.30;;;;;;5115692;28;20067;-75
2023/01/27 12:59:23;;;;;;;3.70;2.10;;;5.00;74.30;;;;;;5117853;28;20066;-75
2023/01/27 13:02:18;;;;;;;3.05;2.10;;;5.00;74.20;;;;;;5100658;28;20032;-75
2023/01/27 13:04:57;;;;;;;2.80;2.10;;;5.00;74.20;;;;;;5116087;28;20062;-75
2023/01/27 13:07:29;;;;;;;2.60;1.83;;;5.00;74.40;;;;;;5117475;27;20367;-76
2023/01/27 13:09:59;;;;;;;2.60;2.05;;;5.00;74.70;;;;;;5120281;27;20035;-80
2023/01/27 13:12:28;;;;;;;3.45;2.45;;;5.00;75.20;;;;;;5128952;27;20039;-79
2023/01/27 13:15:04;;;;;;;3.70;1.73;;;5.00;74.80;;;;;;5128614;27;20073;-77
2023/01/27 13:17:47;;;;;;;3.97;2.17;;;5.00;75.10;;;;;;5124966;27;20469;-73
2023/01/27 13:20:25;;;;;;;3.80;1.88;;;5.00;74.60;;;;;;5120227;27;20089;-76
2023/01/27 13:22:58;;;;;;;2.72;2.20;;;5.00;75.20;;;;;;5121933;27;20043;-76
2023/01/27 13:25:33;;;;;;;3.03;2.17;;;5.00;75.00;;;;;;5122762;27;20531;-78
2023/01/27 13:28:00;;;;;;;3.47;2.47;;;5.00;75.00;;;;;;5127510;27;20437;-79
2023/01/27 13:30:39;;;;;;;3.15;2.28;;;5.00;74.90;;;;;;5126419;27;20062;-77
2023/01/27 13:33:27;;;;;;;3.45;2.17;;;5.00;74.70;;;;;;5126745;27;20039;-78
2023/01/27 13:36:20;;;;;;;4.90;2.70;;;5.00;74.90;;;;;;5110015;27;20090;-78
2023/01/27 13:39:17;;;;;;;3.22;2.42;;;5.00;74.90;;;;;;5124896;27;20486;-78
2023/01/27 13:42:00;;;;;;;3.53;2.30;;;5.00;74.80;;;;;;5121864;27;20059;-78
2023/01/27 13:44:42;;;;;;;3.45;2.40;;;5.00;75.00;;;;;;5127090;27;20466;-80